sensor_id;sensor_type;location;lat;lon;timestamp;pressure;altitude;pressure_sealevel;temperature;humidity
75543;BME280;64129;53.508;10.476;2022-11-11T00:01:58;102080.03;;;11.73;71.56
75543;BME280;64129;53.508;10.476;2022-11-11T00:04:43;102080.00;;;11.76;71.38
75543;BME280;64129;53.508;10.476;2022-11-11T00:07:27;102087.19;;;11.62;71.83
75543;BME280;64129;53.508;10.476;2022-11-11T00:10:12;102091.56;;;11.74;71.37
75543;BME280;64129;53.508;10.476;2022-11-11T00:12:59;102091.59;;;11.68;71.97
75543;BME280;64129;53.508;10.476;2022-11-11T00:15:44;102096.03;;;11.69;71.93
75543;BME280;64129;53.508;10.476;2022-11-11T00:18:29;102094.19;;;11.75;71.32
75543;BME280;64129;53.508;10.476;2022-11-11T00:21:33;102103.09;;;11.73;71.50
75543;BME280;64129;53.508;10.476;2022-11-11T00:24:30;102103.09;;;11.73;71.35
75543;BME280;64129;53.508;10.476;2022-11-11T00:27:35;102102.22;;;11.71;71.98
75543;BME280;64129;53.508;10.476;2022-11-11T00:30:22;102104.06;;;11.63;72.21
75543;BME280;64129;53.508;10.476;2022-11-11T00:33:07;102112.00;;;11.67;71.85
75543;BME280;64129;53.508;10.476;2022-11-11T00:35:53;102098.72;;;11.64;71.92
75543;BME280;64129;53.508;10.476;2022-11-11T00:38:38;102104.88;;;11.71;71.68
75543;BME280;64129;53.508;10.476;2022-11-11T00:41:28;102101.34;;;11.70;71.87
75543;BME280;64129;53.508;10.476;2022-11-11T00:44:13;102097.81;;;11.68;72.20
75543;BME280;64129;53.508;10.476;2022-11-11T00:46:58;102107.56;;;11.68;72.18
75543;BME280;64129;53.508;10.476;2022-11-11T00:50:10;102105.81;;;11.64;71.95
75543;BME280;64129;53.508;10.476;2022-11-11T00:53:20;102097.78;;;11.73;72.00
75543;BME280;64129;53.508;10.476;2022-11-11T00:56:08;102098.72;;;11.64;72.47
75543;BME280;64129;53.508;10.476;2022-11-11T00:58:54;102101.41;;;11.60;72.40
75543;BME280;64129;53.508;10.476;2022-11-11T01:01:39;102103.19;;;11.59;72.45
75543;BME280;64129;53.508;10.476;2022-11-11T01:04:24;102104.13;;;11.53;72.54
75543;BME280;64129;53.508;10.476;2022-11-11T01:07:09;102097.91;;;11.51;72.97
75543;BME280;64129;53.508;10.476;2022-11-11T01:09:54;102107.66;;;11.52;72.85
75543;BME280;64129;53.508;10.476;2022-11-11T01:12:39;102109.41;;;11.55;72.92
75543;BME280;64129;53.508;10.476;2022-11-11T01:15:23;102118.28;;;11.59;72.58
75543;BME280;64129;53.508;10.476;2022-11-11T01:18:11;102105.84;;;11.57;72.50
75543;BME280;64129;53.508;10.476;2022-11-11T01:20:58;102110.31;;;11.52;72.72
75543;BME280;64129;53.508;10.476;2022-11-11T01:23:44;102118.22;;;11.65;72.21
75543;BME280;64129;53.508;10.476;2022-11-11T01:26:30;102109.41;;;11.60;72.44
75543;BME280;64129;53.508;10.476;2022-11-11T01:29:16;102126.25;;;11.59;72.55
75543;BME280;64129;53.508;10.476;2022-11-11T01:32:00;102125.41;;;11.53;72.88
75543;BME280;64129;53.508;10.476;2022-11-11T01:34:45;102125.41;;;11.53;73.08
75543;BME280;64129;53.508;10.476;2022-11-11T01:37:34;102144.88;;;11.59;72.96
75543;BME280;64129;53.508;10.476;2022-11-11T01:40:19;102138.75;;;11.47;73.25
75543;BME280;64129;53.508;10.476;2022-11-11T01:45:57;102118.34;;;11.43;73.59
75543;BME280;64129;53.508;10.476;2022-11-11T01:48:53;102116.53;;;11.54;72.89
75543;BME280;64129;53.508;10.476;2022-11-11T01:52:20;102101.50;;;11.46;73.30
75543;BME280;64129;53.508;10.476;2022-11-11T01:55:11;102097.03;;;11.51;73.08
75543;BME280;64129;53.508;10.476;2022-11-11T01:58:04;102107.72;;;11.37;74.03
75543;BME280;64129;53.508;10.476;2022-11-11T02:00:50;102120.13;;;11.41;73.29
75543;BME280;64129;53.508;10.476;2022-11-11T02:03:38;102105.94;;;11.45;73.51
75543;BME280;64129;53.508;10.476;2022-11-11T02:06:25;102098.81;;;11.43;73.51
75543;BME280;64129;53.508;10.476;2022-11-11T02:09:11;102098.81;;;11.44;73.79
75543;BME280;64129;53.508;10.476;2022-11-11T02:11:58;102102.38;;;11.48;73.28
75543;BME280;64129;53.508;10.476;2022-11-11T02:15:02;102097.06;;;11.40;73.19
75543;BME280;64129;53.508;10.476;2022-11-11T02:17:48;102100.69;;;11.27;74.17
75543;BME280;64129;53.508;10.476;2022-11-11T02:20:38;102097.09;;;11.37;73.84
75543;BME280;64129;53.508;10.476;2022-11-11T02:23:29;102089.09;;;11.46;73.83
75543;BME280;64129;53.508;10.476;2022-11-11T02:26:17;102084.63;;;11.44;73.47
75543;BME280;64129;53.508;10.476;2022-11-11T02:29:07;102082.94;;;11.29;74.19
75543;BME280;64129;53.508;10.476;2022-11-11T02:31:53;102088.28;;;11.29;74.17
75543;BME280;64129;53.508;10.476;2022-11-11T02:34:39;102092.75;;;11.19;74.39
75543;BME280;64129;53.508;10.476;2022-11-11T02:37:26;102084.75;;;11.24;73.94
75543;BME280;64129;53.508;10.476;2022-11-11T02:40:22;102076.84;;;11.10;74.18
75543;BME280;64129;53.508;10.476;2022-11-11T02:43:10;102071.47;;;11.21;74.44
75543;BME280;64129;53.508;10.476;2022-11-11T02:45:55;102064.41;;;11.17;74.03
75543;BME280;64129;53.508;10.476;2022-11-11T02:48:40;102064.34;;;11.24;74.21
75543;BME280;64129;53.508;10.476;2022-11-11T02:51:25;102061.75;;;11.14;74.14
75543;BME280;64129;53.508;10.476;2022-11-11T02:54:10;102052.00;;;11.16;74.00
75543;BME280;64129;53.508;10.476;2022-11-11T02:56:56;102056.44;;;11.14;74.49
75543;BME280;64129;53.508;10.476;2022-11-11T02:59:53;102058.19;;;11.18;74.06
75543;BME280;64129;53.508;10.476;2022-11-11T03:02:38;102059.97;;;11.19;74.06
75543;BME280;64129;53.508;10.476;2022-11-11T03:05:23;102072.38;;;11.15;74.35
75543;BME280;64129;53.508;10.476;2022-11-11T03:08:09;102085.66;;;11.18;74.30
75543;BME280;64129;53.508;10.476;2022-11-11T03:10:54;102094.53;;;11.20;74.04
75543;BME280;64129;53.508;10.476;2022-11-11T03:13:39;102098.91;;;11.31;74.14
75543;BME280;64129;53.508;10.476;2022-11-11T03:16:25;102098.94;;;11.23;74.51
75543;BME280;64129;53.508;10.476;2022-11-11T03:19:29;102104.19;;;11.34;73.64
75543;BME280;64129;53.508;10.476;2022-11-11T03:22:14;102103.38;;;11.22;74.30
75543;BME280;64129;53.508;10.476;2022-11-11T03:25:19;102108.72;;;11.16;74.20
75543;BME280;64129;53.508;10.476;2022-11-11T03:28:22;102114.94;;;11.14;74.41
75543;BME280;64129;53.508;10.476;2022-11-11T03:31:10;102122.00;;;11.19;74.39
75543;BME280;64129;53.508;10.476;2022-11-11T03:33:55;102122.91;;;11.15;74.38
75543;BME280;64129;53.508;10.476;2022-11-11T03:37:00;102122.00;;;11.21;74.35
75543;BME280;64129;53.508;10.476;2022-11-11T03:40:04;102124.69;;;11.16;74.41
75543;BME280;64129;53.508;10.476;2022-11-11T03:42:50;102122.00;;;11.21;73.96
75543;BME280;64129;53.508;10.476;2022-11-11T03:45:35;102125.56;;;11.20;73.83
75543;BME280;64129;53.508;10.476;2022-11-11T03:48:21;102121.13;;;11.08;74.42
75543;BME280;64129;53.508;10.476;2022-11-11T03:51:06;102125.59;;;11.05;74.39
75543;BME280;64129;53.508;10.476;2022-11-11T03:53:51;102121.19;;;10.99;74.74
75543;BME280;64129;53.508;10.476;2022-11-11T03:56:36;102113.25;;;10.88;74.34
75543;BME280;64129;53.508;10.476;2022-11-11T03:59:21;102120.31;;;10.92;74.67
75543;BME280;64129;53.508;10.476;2022-11-11T04:02:10;102122.94;;;11.05;74.24
75543;BME280;64129;53.508;10.476;2022-11-11T04:05:15;102130.00;;;11.06;73.96
75543;BME280;64129;53.508;10.476;2022-11-11T04:08:26;102121.19;;;10.96;74.03
75543;BME280;64129;53.508;10.476;2022-11-11T04:11:34;102121.19;;;10.98;74.08
75543;BME280;64129;53.508;10.476;2022-11-11T04:14:20;102121.19;;;10.93;74.50
75543;BME280;64129;53.508;10.476;2022-11-11T04:17:24;102138.06;;;10.81;74.91
75543;BME280;64129;53.508;10.476;2022-11-11T04:20:09;102146.03;;;10.86;74.52
75543;BME280;64129;53.508;10.476;2022-11-11T04:23:13;102140.72;;;10.87;74.43
75543;BME280;64129;53.508;10.476;2022-11-11T04:25:59;102143.38;;;10.84;74.99
75543;BME280;64129;53.508;10.476;2022-11-11T04:28:45;102156.66;;;10.83;74.86
75543;BME280;64129;53.508;10.476;2022-11-11T04:31:49;102149.59;;;10.82;74.67
75543;BME280;64129;53.508;10.476;2022-11-11T04:34:55;102154.03;;;10.81;75.38
75543;BME280;64129;53.508;10.476;2022-11-11T04:37:47;102154.00;;;10.84;74.74
75543;BME280;64129;53.508;10.476;2022-11-11T04:40:35;102157.56;;;10.80;75.07
75543;BME280;64129;53.508;10.476;2022-11-11T04:43:39;102148.72;;;10.78;75.59
75543;BME280;64129;53.508;10.476;2022-11-11T04:46:43;102143.41;;;10.66;75.99
75543;BME280;64129;53.508;10.476;2022-11-11T04:49:28;102148.69;;;10.84;74.85
75543;BME280;64129;53.508;10.476;2022-11-11T04:52:13;102140.72;;;10.84;74.92
75543;BME280;64129;53.508;10.476;2022-11-11T04:55:11;102142.53;;;10.76;75.52
75543;BME280;64129;53.508;10.476;2022-11-11T04:58:16;102154.00;;;10.72;75.51
75543;BME280;64129;53.508;10.476;2022-11-11T05:01:01;102141.63;;;10.76;75.23
75543;BME280;64129;53.508;10.476;2022-11-11T05:03:46;102141.59;;;10.74;75.67
75543;BME280;64129;53.508;10.476;2022-11-11T05:06:31;102146.94;;;10.68;75.52
75543;BME280;64129;53.508;10.476;2022-11-11T05:09:36;102151.34;;;10.69;75.49
75543;BME280;64129;53.508;10.476;2022-11-11T05:12:21;102146.91;;;10.74;75.83
75543;BME280;64129;53.508;10.476;2022-11-11T05:15:07;102151.34;;;10.74;75.32
75543;BME280;64129;53.508;10.476;2022-11-11T05:18:11;102153.16;;;10.61;76.11
75543;BME280;64129;53.508;10.476;2022-11-11T05:21:18;102130.97;;;10.71;75.79
75543;BME280;64129;53.508;10.476;2022-11-11T05:24:06;102129.22;;;10.64;75.97
75543;BME280;64129;53.508;10.476;2022-11-11T05:27:10;102131.00;;;10.68;75.57
75543;BME280;64129;53.508;10.476;2022-11-11T05:29:55;102119.50;;;10.61;76.16
75543;BME280;64129;53.508;10.476;2022-11-11T05:32:41;102123.88;;;10.73;75.70
75543;BME280;64129;53.508;10.476;2022-11-11T05:35:25;102136.31;;;10.65;75.65
75543;BME280;64129;53.508;10.476;2022-11-11T05:38:10;102124.81;;;10.65;75.64
75543;BME280;64129;53.508;10.476;2022-11-11T05:41:05;102126.56;;;10.76;75.14
75543;BME280;64129;53.508;10.476;2022-11-11T05:43:51;102139.88;;;10.59;76.17
75543;BME280;64129;53.508;10.476;2022-11-11T05:46:36;102145.19;;;10.58;76.35
75543;BME280;64129;53.508;10.476;2022-11-11T05:49:21;102148.72;;;10.60;76.00
75543;BME280;64129;53.508;10.476;2022-11-11T05:52:09;102137.19;;;10.67;75.82
75543;BME280;64129;53.508;10.476;2022-11-11T05:54:54;102143.38;;;10.69;75.88
75543;BME280;64129;53.508;10.476;2022-11-11T05:57:39;102144.28;;;10.60;76.07
75543;BME280;64129;53.508;10.476;2022-11-11T06:00:24;102149.59;;;10.63;76.39
75543;BME280;64129;53.508;10.476;2022-11-11T06:03:09;102154.03;;;10.57;76.21
75543;BME280;64129;53.508;10.476;2022-11-11T06:05:54;102148.72;;;10.60;76.04
75543;BME280;64129;53.508;10.476;2022-11-11T06:08:39;102154.03;;;10.57;76.30
75543;BME280;64129;53.508;10.476;2022-11-11T06:11:24;102152.25;;;10.59;75.76
75543;BME280;64129;53.508;10.476;2022-11-11T06:14:12;102158.44;;;10.69;75.72
75543;BME280;64129;53.508;10.476;2022-11-11T06:16:57;102150.50;;;10.55;76.14
75543;BME280;64129;53.508;10.476;2022-11-11T06:19:42;102156.69;;;10.68;75.83
75543;BME280;64129;53.508;10.476;2022-11-11T06:22:27;102159.34;;;10.58;76.03
75543;BME280;64129;53.508;10.476;2022-11-11T06:25:33;102162.00;;;10.55;76.73
75543;BME280;64129;53.508;10.476;2022-11-11T06:31:28;102168.22;;;10.53;76.63
75543;BME280;64129;53.508;10.476;2022-11-11T06:34:13;102175.28;;;10.55;76.50
75543;BME280;64129;53.508;10.476;2022-11-11T06:36:58;102175.28;;;10.55;76.88
75543;BME280;64129;53.508;10.476;2022-11-11T06:39:43;102165.56;;;10.48;77.28
75543;BME280;64129;53.508;10.476;2022-11-11T06:42:28;102167.31;;;10.55;77.19
75543;BME280;64129;53.508;10.476;2022-11-11T06:45:13;102178.84;;;10.50;77.10
75543;BME280;64129;53.508;10.476;2022-11-11T06:47:57;102173.53;;;10.56;76.67
75543;BME280;64129;53.508;10.476;2022-11-11T06:50:43;102185.03;;;10.52;76.92
75543;BME280;64129;53.508;10.476;2022-11-11T06:53:28;102192.13;;;10.53;77.39
75543;BME280;64129;53.508;10.476;2022-11-11T06:56:13;102194.78;;;10.53;76.86
75543;BME280;64129;53.508;10.476;2022-11-11T06:58:58;102208.94;;;10.49;77.36
75543;BME280;64129;53.508;10.476;2022-11-11T07:01:43;102209.81;;;10.58;76.67
75543;BME280;64129;53.508;10.476;2022-11-11T07:04:28;102219.56;;;10.50;76.85
75543;BME280;64129;53.508;10.476;2022-11-11T07:07:13;102211.59;;;10.61;76.79
75543;BME280;64129;53.508;10.476;2022-11-11T07:09:58;102207.19;;;10.48;77.24
75543;BME280;64129;53.508;10.476;2022-11-11T07:12:43;102223.97;;;10.38;77.79
75543;BME280;64129;53.508;10.476;2022-11-11T07:15:28;102210.72;;;10.50;77.12
75543;BME280;64129;53.508;10.476;2022-11-11T07:18:13;102219.56;;;10.46;77.77
75543;BME280;64129;53.508;10.476;2022-11-11T07:20:58;102221.34;;;10.47;77.60
75543;BME280;64129;53.508;10.476;2022-11-11T07:23:43;102218.69;;;10.45;77.20
75543;BME280;64129;53.508;10.476;2022-11-11T07:26:28;102235.47;;;10.40;77.73
75543;BME280;64129;53.508;10.476;2022-11-11T07:29:13;102225.78;;;10.45;77.65
75543;BME280;64129;53.508;10.476;2022-11-11T07:31:59;102231.09;;;10.42;77.66
75543;BME280;64129;53.508;10.476;2022-11-11T07:34:43;102231.97;;;10.47;77.75
75543;BME280;64129;53.508;10.476;2022-11-11T07:37:31;102239.94;;;10.42;77.61
75543;BME280;64129;53.508;10.476;2022-11-11T07:40:17;102239.94;;;10.47;77.85
75543;BME280;64129;53.508;10.476;2022-11-11T07:43:03;102239.06;;;10.45;78.05
75543;BME280;64129;53.508;10.476;2022-11-11T07:45:48;102247.03;;;10.45;77.92
75543;BME280;64129;53.508;10.476;2022-11-11T07:48:33;102248.78;;;10.44;77.95
75543;BME280;64129;53.508;10.476;2022-11-11T07:51:18;102247.88;;;10.38;78.31
75543;BME280;64129;53.508;10.476;2022-11-11T07:54:03;102254.09;;;10.52;77.80
75543;BME280;64129;53.508;10.476;2022-11-11T07:56:48;102255.00;;;10.42;78.73
75543;BME280;64129;53.508;10.476;2022-11-11T07:59:33;102252.31;;;10.40;78.41
75543;BME280;64129;53.508;10.476;2022-11-11T08:02:18;102254.09;;;10.41;78.81
75543;BME280;64129;53.508;10.476;2022-11-11T08:05:03;102262.03;;;10.40;79.31
75543;BME280;64129;53.508;10.476;2022-11-11T08:07:48;102266.50;;;10.42;78.50
75543;BME280;64129;53.508;10.476;2022-11-11T08:10:33;102272.69;;;10.43;79.03
75543;BME280;64129;53.508;10.476;2022-11-11T08:13:19;102277.13;;;10.41;79.17
75543;BME280;64129;53.508;10.476;2022-11-11T08:16:22;102278.84;;;10.40;78.99
75543;BME280;64129;53.508;10.476;2022-11-11T08:19:07;102275.34;;;10.52;78.75
75543;BME280;64129;53.508;10.476;2022-11-11T08:21:53;102278.91;;;10.71;77.52
75543;BME280;64129;53.508;10.476;2022-11-11T08:24:38;102280.66;;;10.70;78.46
75543;BME280;64129;53.508;10.476;2022-11-11T08:27:43;102278.00;;;10.61;79.07
75543;BME280;64129;53.508;10.476;2022-11-11T08:30:28;102294.84;;;10.57;79.15
75543;BME280;64129;53.508;10.476;2022-11-11T08:33:14;102296.63;;;10.59;79.58
75543;BME280;64129;53.508;10.476;2022-11-11T08:36:19;102296.63;;;10.66;78.82
75543;BME280;64129;53.508;10.476;2022-11-11T08:39:05;102303.69;;;10.60;79.35
75543;BME280;64129;53.508;10.476;2022-11-11T08:41:50;102309.91;;;10.59;79.89
75543;BME280;64129;53.508;10.476;2022-11-11T08:44:35;102301.94;;;10.73;79.05
75543;BME280;64129;53.508;10.476;2022-11-11T08:47:20;102302.81;;;10.69;79.21
75543;BME280;64129;53.508;10.476;2022-11-11T08:50:08;102306.34;;;10.74;78.61
75543;BME280;64129;53.508;10.476;2022-11-11T08:52:53;102311.69;;;10.71;79.14
75543;BME280;64129;53.508;10.476;2022-11-11T08:55:38;102305.47;;;10.75;78.71
75543;BME280;64129;53.508;10.476;2022-11-11T08:58:23;102313.44;;;10.69;79.11
75543;BME280;64129;53.508;10.476;2022-11-11T09:01:12;102305.47;;;10.74;78.72
75543;BME280;64129;53.508;10.476;2022-11-11T09:03:57;102304.63;;;10.88;78.33
75543;BME280;64129;53.508;10.476;2022-11-11T09:06:46;102319.69;;;10.91;77.93
75543;BME280;64129;53.508;10.476;2022-11-11T09:09:32;102318.78;;;10.93;78.00
75543;BME280;64129;53.508;10.476;2022-11-11T09:12:17;102329.44;;;10.87;78.46
75543;BME280;64129;53.508;10.476;2022-11-11T09:15:02;102320.56;;;10.94;78.21
75543;BME280;64129;53.508;10.476;2022-11-11T09:17:47;102324.09;;;10.93;77.82
75543;BME280;64129;53.508;10.476;2022-11-11T09:20:32;102324.09;;;11.03;77.60
75543;BME280;64129;53.508;10.476;2022-11-11T09:23:17;102326.75;;;11.09;77.34
75543;BME280;64129;53.508;10.476;2022-11-11T09:26:02;102336.53;;;11.13;77.09
75543;BME280;64129;53.508;10.476;2022-11-11T09:28:50;102336.50;;;11.07;77.59
75543;BME280;64129;53.508;10.476;2022-11-11T09:31:35;102332.09;;;11.13;76.97
75543;BME280;64129;53.508;10.476;2022-11-11T09:34:27;102326.78;;;11.10;77.65
75543;BME280;64129;53.508;10.476;2022-11-11T09:37:12;102339.19;;;11.23;77.08
75543;BME280;64129;53.508;10.476;2022-11-11T09:39:57;102341.84;;;11.19;76.78
75543;BME280;64129;53.508;10.476;2022-11-11T09:42:47;102340.97;;;11.15;76.78
75543;BME280;64129;53.508;10.476;2022-11-11T09:52:18;102357.78;;;11.10;77.09
75543;BME280;64129;53.508;10.476;2022-11-11T09:55:14;102356.00;;;11.09;77.34
75543;BME280;64129;53.508;10.476;2022-11-11T09:58:07;102359.53;;;11.41;76.48
75543;BME280;64129;53.508;10.476;2022-11-11T10:01:15;102361.31;;;11.39;76.66
75543;BME280;64129;53.508;10.476;2022-11-11T10:04:16;102360.47;;;11.17;76.91
75543;BME280;64129;53.508;10.476;2022-11-11T10:07:12;102360.47;;;11.23;77.00
75543;BME280;64129;53.508;10.476;2022-11-11T10:10:05;102367.53;;;11.28;76.82
75543;BME280;64129;53.508;10.476;2022-11-11T10:12:55;102364.88;;;11.20;77.45
75543;BME280;64129;53.508;10.476;2022-11-11T10:15:51;102371.97;;;11.21;77.42
75543;BME280;64129;53.508;10.476;2022-11-11T10:25:05;102375.53;;;11.29;76.76
75543;BME280;64129;53.508;10.476;2022-11-11T10:27:54;102373.75;;;11.22;77.14
75543;BME280;64129;53.508;10.476;2022-11-11T10:30:41;102373.72;;;11.07;77.77
75543;BME280;64129;53.508;10.476;2022-11-11T10:33:29;102377.31;;;11.19;77.09
75543;BME280;64129;53.508;10.476;2022-11-11T10:36:17;102377.28;;;11.06;77.30
75543;BME280;64129;53.508;10.476;2022-11-11T10:39:04;102374.63;;;10.98;77.57
75543;BME280;64129;53.508;10.476;2022-11-11T10:41:50;102363.97;;;10.98;77.80
75543;BME280;64129;53.508;10.476;2022-11-11T10:44:37;102368.41;;;11.10;77.09
75543;BME280;64129;53.508;10.476;2022-11-11T10:47:41;102377.31;;;11.21;76.82
75543;BME280;64129;53.508;10.476;2022-11-11T10:50:35;102370.22;;;11.23;76.46
75543;BME280;64129;53.508;10.476;2022-11-11T10:53:38;102379.03;;;11.10;76.13
75543;BME280;64129;53.508;10.476;2022-11-11T10:56:35;102372.00;;;11.12;76.36
75543;BME280;64129;53.508;10.476;2022-11-11T10:59:25;102374.63;;;11.07;76.03
75543;BME280;64129;53.508;10.476;2022-11-11T11:02:20;102367.56;;;11.11;76.18
75543;BME280;64129;53.508;10.476;2022-11-11T11:05:18;102367.56;;;11.11;76.06
75543;BME280;64129;53.508;10.476;2022-11-11T11:08:10;102373.75;;;11.16;75.48
75543;BME280;64129;53.508;10.476;2022-11-11T11:10:57;102366.66;;;11.19;74.73
75543;BME280;64129;53.508;10.476;2022-11-11T11:13:49;102371.97;;;11.24;75.30
75543;BME280;64129;53.508;10.476;2022-11-11T11:16:38;102369.31;;;11.13;75.42
75543;BME280;64129;53.508;10.476;2022-11-11T11:19:28;102369.28;;;11.41;75.03
75543;BME280;64129;53.508;10.476;2022-11-11T11:22:14;102377.31;;;11.16;74.75
75543;BME280;64129;53.508;10.476;2022-11-11T11:25:09;102370.22;;;11.20;74.83
75543;BME280;64129;53.508;10.476;2022-11-11T11:28:10;102376.38;;;11.02;74.95
75543;BME280;64129;53.508;10.476;2022-11-11T11:31:04;102381.72;;;11.17;74.90
75543;BME280;64129;53.508;10.476;2022-11-11T11:33:54;102387.94;;;11.15;74.53
75543;BME280;64129;53.508;10.476;2022-11-11T11:36:40;102390.59;;;11.27;74.72
75543;BME280;64129;53.508;10.476;2022-11-11T11:39:34;102387.91;;;11.06;74.68
75543;BME280;64129;53.508;10.476;2022-11-11T11:42:33;102391.47;;;11.38;74.33
75543;BME280;64129;53.508;10.476;2022-11-11T11:48:56;102384.41;;;11.14;74.30
75543;BME280;64129;53.508;10.476;2022-11-11T11:51:30;102383.50;;;11.11;73.76
75543;BME280;64129;53.508;10.476;2022-11-11T11:54:43;102384.38;;;11.22;73.74
75543;BME280;64129;53.508;10.476;2022-11-11T11:57:49;102386.16;;;11.20;74.21
75543;BME280;64129;53.508;10.476;2022-11-11T12:00:43;102391.44;;;11.08;74.45
75543;BME280;64129;53.508;10.476;2022-11-11T12:03:51;102387.91;;;11.03;74.76
75543;BME280;64129;53.508;10.476;2022-11-11T12:06:53;102386.16;;;11.26;73.74
75543;BME280;64129;53.508;10.476;2022-11-11T12:12:58;102400.31;;;11.04;74.52
75543;BME280;64129;53.508;10.476;2022-11-11T12:16:12;102373.72;;;11.10;74.43
75543;BME280;64129;53.508;10.476;2022-11-11T12:19:16;102372.00;;;11.12;74.76
75543;BME280;64129;53.508;10.476;2022-11-11T12:22:28;102381.72;;;11.23;73.85
75543;BME280;64129;53.508;10.476;2022-11-11T12:29:00;102383.50;;;11.21;74.05
75543;BME280;64129;53.508;10.476;2022-11-11T12:31:57;102373.75;;;11.16;74.06
75543;BME280;64129;53.508;10.476;2022-11-11T12:44:16;102387.94;;;11.12;73.49
75543;BME280;64129;53.508;10.476;2022-11-11T12:53:19;102379.06;;;11.19;73.83
75543;BME280;64129;53.508;10.476;2022-11-11T13:04:48;102385.28;;;11.27;74.12
75543;BME280;64129;53.508;10.476;2022-11-11T13:10:51;102388.81;;;11.32;73.92
75543;BME280;64129;53.508;10.476;2022-11-11T13:14:06;102388.81;;;11.32;73.93
75543;BME280;64129;53.508;10.476;2022-11-11T13:16:57;102392.38;;;11.28;74.19
75543;BME280;64129;53.508;10.476;2022-11-11T13:19:48;102399.44;;;11.38;74.68
75543;BME280;64129;53.508;10.476;2022-11-11T13:22:35;102387.03;;;11.40;74.20
75543;BME280;64129;53.508;10.476;2022-11-11T13:25:23;102396.78;;;11.40;74.70
75543;BME280;64129;53.508;10.476;2022-11-11T13:28:17;102398.56;;;11.33;74.36
75543;BME280;64129;53.508;10.476;2022-11-11T13:31:28;102407.44;;;11.41;74.79
75543;BME280;64129;53.508;10.476;2022-11-11T13:34:15;102406.56;;;11.54;73.96
75543;BME280;64129;53.508;10.476;2022-11-11T13:37:03;102413.63;;;11.60;74.19
75543;BME280;64129;53.508;10.476;2022-11-11T13:39:50;102402.09;;;11.61;74.78
75543;BME280;64129;53.508;10.476;2022-11-11T13:42:41;102405.66;;;11.51;75.18
75543;BME280;64129;53.508;10.476;2022-11-11T13:45:40;102400.31;;;11.65;74.73
75543;BME280;64129;53.508;10.476;2022-11-11T13:48:30;102403.88;;;11.57;74.56
75543;BME280;64129;53.508;10.476;2022-11-11T13:54:28;102406.53;;;11.65;74.86
75543;BME280;64129;53.508;10.476;2022-11-11T14:09:06;102414.53;;;11.61;75.06
75543;BME280;64129;53.508;10.476;2022-11-11T14:12:21;102420.75;;;11.56;75.73
75543;BME280;64129;53.508;10.476;2022-11-11T14:21:01;102423.41;;;11.61;75.44
75543;BME280;64129;53.508;10.476;2022-11-11T14:23:52;102418.97;;;11.81;74.45
75543;BME280;64129;53.508;10.476;2022-11-11T14:26:37;102418.94;;;11.65;75.33
75543;BME280;64129;53.508;10.476;2022-11-11T14:29:26;102418.09;;;11.56;75.96
75543;BME280;64129;53.508;10.476;2022-11-11T14:35:32;102426.03;;;11.67;75.83
75543;BME280;64129;53.508;10.476;2022-11-11T14:38:34;102433.16;;;11.62;75.58
75543;BME280;64129;53.508;10.476;2022-11-11T14:41:51;102434.03;;;11.60;75.45
75543;BME280;64129;53.508;10.476;2022-11-11T14:44:39;102433.13;;;11.74;75.32
75543;BME280;64129;53.508;10.476;2022-11-11T14:47:36;102430.47;;;11.67;75.69
75543;BME280;64129;53.508;10.476;2022-11-11T14:53:18;102433.13;;;11.74;75.53
75543;BME280;64129;53.508;10.476;2022-11-11T14:56:04;102433.16;;;11.85;74.60
75543;BME280;64129;53.508;10.476;2022-11-11T14:59:02;102429.59;;;11.78;74.87
75543;BME280;64129;53.508;10.476;2022-11-11T15:01:50;102425.16;;;11.59;75.49
75543;BME280;64129;53.508;10.476;2022-11-11T15:04:37;102430.53;;;11.80;75.07
75543;BME280;64129;53.508;10.476;2022-11-11T15:07:33;102434.03;;;11.66;75.77
75543;BME280;64129;53.508;10.476;2022-11-11T15:10:28;102428.72;;;11.50;76.13
75543;BME280;64129;53.508;10.476;2022-11-11T15:22:59;102436.69;;;11.40;76.11
75543;BME280;64129;53.508;10.476;2022-11-11T15:29:24;102444.66;;;11.38;76.01
75543;BME280;64129;53.508;10.476;2022-11-11T15:33:05;102434.31;;;13.29;74.02
75543;BME280;64129;53.508;10.476;2022-11-11T15:35:57;102446.47;;;11.96;73.54
75543;BME280;64129;53.508;10.476;2022-11-11T15:38:44;102444.66;;;11.69;74.63
75543;BME280;64129;53.508;10.476;2022-11-11T15:41:36;102448.22;;;11.31;75.94
75543;BME280;64129;53.508;10.476;2022-11-11T15:44:25;102451.78;;;11.24;75.38
75543;BME280;64129;53.508;10.476;2022-11-11T15:47:13;102452.66;;;11.20;75.48
75543;BME280;64129;53.508;10.476;2022-11-11T15:49:59;102458.84;;;11.22;75.72
75543;BME280;64129;53.508;10.476;2022-11-11T15:52:44;102450.75;;;12.44;76.28
75543;BME280;64129;53.508;10.476;2022-11-11T15:55:32;102458.84;;;11.43;73.75
75543;BME280;64129;53.508;10.476;2022-11-11T15:58:28;102465.06;;;11.19;74.76
75543;BME280;64129;53.508;10.476;2022-11-11T16:01:14;102458.81;;;10.99;75.28
75543;BME280;64129;53.508;10.476;2022-11-11T16:03:59;102465.88;;;10.92;74.92
75543;BME280;64129;53.508;10.476;2022-11-11T16:06:45;102472.06;;;10.82;75.38
75543;BME280;64129;53.508;10.476;2022-11-11T16:09:30;102465.78;;;10.71;75.55
75543;BME280;64129;53.508;10.476;2022-11-11T16:12:23;102470.22;;;10.65;75.78
75543;BME280;64129;53.508;10.476;2022-11-11T16:15:18;102466.66;;;10.58;76.27
75543;BME280;64129;53.508;10.476;2022-11-11T16:18:14;102474.59;;;10.52;76.12